sensor_id;sensor_type;location;lat;lon;timestamp;P1;durP1;ratioP1;P2;durP2;ratioP2
29838;SDS011;18669;53.356;-1.464;2023-05-10T00:01:48;13.88;;;3.13;;
29838;SDS011;18669;53.356;-1.464;2023-05-10T00:04:33;12.85;;;3.00;;
29838;SDS011;18669;53.356;-1.464;2023-05-10T00:07:18;15.13;;;3.63;;
29838;SDS011;18669;53.356;-1.464;2023-05-10T00:10:03;13.80;;;3.40;;
29838;SDS011;18669;53.356;-1.464;2023-05-10T00:12:48;9.40;;;2.83;;
29838;SDS011;18669;53.356;-1.464;2023-05-10T00:15:32;15.88;;;3.28;;
29838;SDS011;18669;53.356;-1.464;2023-05-10T00:18:18;11.90;;;2.95;;
29838;SDS011;18669;53.356;-1.464;2023-05-10T00:21:04;7.40;;;3.13;;
29838;SDS011;18669;53.356;-1.464;2023-05-10T00:23:49;9.63;;;2.30;;
29838;SDS011;18669;53.356;-1.464;2023-05-10T00:26:33;8.80;;;2.85;;
29838;SDS011;18669;53.356;-1.464;2023-05-10T00:29:18;10.57;;;2.55;;
29838;SDS011;18669;53.356;-1.464;2023-05-10T00:32:04;7.97;;;2.67;;
29838;SDS011;18669;53.356;-1.464;2023-05-10T00:34:48;9.23;;;2.38;;
29838;SDS011;18669;53.356;-1.464;2023-05-10T00:37:33;9.43;;;2.13;;
29838;SDS011;18669;53.356;-1.464;2023-05-10T00:40:18;13.45;;;2.30;;
29838;SDS011;18669;53.356;-1.464;2023-05-10T00:43:03;11.27;;;2.85;;
29838;SDS011;18669;53.356;-1.464;2023-05-10T00:45:48;11.35;;;2.53;;
29838;SDS011;18669;53.356;-1.464;2023-05-10T00:48:33;14.68;;;3.67;;
29838;SDS011;18669;53.356;-1.464;2023-05-10T00:51:19;10.55;;;2.60;;
29838;SDS011;18669;53.356;-1.464;2023-05-10T00:54:04;10.68;;;2.45;;
29838;SDS011;18669;53.356;-1.464;2023-05-10T00:56:49;8.93;;;2.65;;
29838;SDS011;18669;53.356;-1.464;2023-05-10T00:59:34;12.50;;;2.78;;
29838;SDS011;18669;53.356;-1.464;2023-05-10T01:02:19;8.75;;;2.70;;
29838;SDS011;18669;53.356;-1.464;2023-05-10T01:05:04;12.85;;;2.72;;
29838;SDS011;18669;53.356;-1.464;2023-05-10T01:07:49;11.68;;;2.83;;
29838;SDS011;18669;53.356;-1.464;2023-05-10T01:10:34;10.15;;;2.55;;
29838;SDS011;18669;53.356;-1.464;2023-05-10T01:13:26;15.77;;;3.40;;
29838;SDS011;18669;53.356;-1.464;2023-05-10T01:16:17;9.70;;;2.47;;
29838;SDS011;18669;53.356;-1.464;2023-05-10T01:19:02;10.68;;;2.38;;
29838;SDS011;18669;53.356;-1.464;2023-05-10T01:33:59;10.27;;;2.63;;
29838;SDS011;18669;53.356;-1.464;2023-05-10T01:36:51;14.55;;;2.28;;
29838;SDS011;18669;53.356;-1.464;2023-05-10T01:43:04;7.40;;;2.10;;
29838;SDS011;18669;53.356;-1.464;2023-05-10T01:46:08;8.90;;;2.10;;
29838;SDS011;18669;53.356;-1.464;2023-05-10T01:48:58;11.23;;;2.30;;
29838;SDS011;18669;53.356;-1.464;2023-05-10T01:51:47;13.07;;;3.15;;
29838;SDS011;18669;53.356;-1.464;2023-05-10T01:54:37;12.77;;;2.53;;
29838;SDS011;18669;53.356;-1.464;2023-05-10T01:57:25;16.60;;;2.92;;
29838;SDS011;18669;53.356;-1.464;2023-05-10T02:00:17;8.38;;;2.22;;
29838;SDS011;18669;53.356;-1.464;2023-05-10T02:03:05;11.07;;;2.22;;
29838;SDS011;18669;53.356;-1.464;2023-05-10T02:05:51;8.05;;;1.98;;
29838;SDS011;18669;53.356;-1.464;2023-05-10T02:11:24;7.28;;;2.20;;
29838;SDS011;18669;53.356;-1.464;2023-05-10T02:14:10;12.18;;;2.75;;
29838;SDS011;18669;53.356;-1.464;2023-05-10T02:16:55;14.50;;;3.08;;
29838;SDS011;18669;53.356;-1.464;2023-05-10T02:19:42;11.88;;;2.58;;
29838;SDS011;18669;53.356;-1.464;2023-05-10T02:22:27;12.25;;;3.33;;
29838;SDS011;18669;53.356;-1.464;2023-05-10T02:25:13;11.35;;;2.95;;
29838;SDS011;18669;53.356;-1.464;2023-05-10T02:28:00;14.18;;;3.20;;
29838;SDS011;18669;53.356;-1.464;2023-05-10T02:30:48;17.42;;;2.75;;
29838;SDS011;18669;53.356;-1.464;2023-05-10T02:33:33;11.23;;;2.70;;
29838;SDS011;18669;53.356;-1.464;2023-05-10T02:36:19;10.33;;;2.73;;
29838;SDS011;18669;53.356;-1.464;2023-05-10T02:39:05;9.73;;;2.63;;
29838;SDS011;18669;53.356;-1.464;2023-05-10T02:41:54;13.65;;;2.88;;
29838;SDS011;18669;53.356;-1.464;2023-05-10T02:44:40;10.93;;;2.33;;
29838;SDS011;18669;53.356;-1.464;2023-05-10T02:47:27;5.90;;;2.35;;
29838;SDS011;18669;53.356;-1.464;2023-05-10T02:50:13;10.68;;;2.28;;
29838;SDS011;18669;53.356;-1.464;2023-05-10T02:52:59;10.48;;;2.67;;
29838;SDS011;18669;53.356;-1.464;2023-05-10T02:55:49;12.05;;;2.50;;
29838;SDS011;18669;53.356;-1.464;2023-05-10T02:58:36;9.93;;;3.08;;
29838;SDS011;18669;53.356;-1.464;2023-05-10T03:01:21;16.88;;;2.78;;
29838;SDS011;18669;53.356;-1.464;2023-05-10T03:04:06;13.98;;;2.35;;
29838;SDS011;18669;53.356;-1.464;2023-05-10T03:06:51;13.82;;;2.67;;
29838;SDS011;18669;53.356;-1.464;2023-05-10T03:09:37;10.48;;;3.10;;
29838;SDS011;18669;53.356;-1.464;2023-05-10T03:15:59;9.20;;;2.28;;
29838;SDS011;18669;53.356;-1.464;2023-05-10T03:22:19;14.00;;;2.50;;
29838;SDS011;18669;53.356;-1.464;2023-05-10T03:25:10;11.13;;;3.20;;
29838;SDS011;18669;53.356;-1.464;2023-05-10T03:27:56;9.70;;;2.63;;
29838;SDS011;18669;53.356;-1.464;2023-05-10T03:30:42;12.48;;;3.70;;
29838;SDS011;18669;53.356;-1.464;2023-05-10T03:33:29;12.00;;;3.33;;
29838;SDS011;18669;53.356;-1.464;2023-05-10T03:36:13;11.20;;;2.80;;
29838;SDS011;18669;53.356;-1.464;2023-05-10T03:38:58;8.77;;;2.63;;
29838;SDS011;18669;53.356;-1.464;2023-05-10T03:41:43;14.15;;;3.03;;
29838;SDS011;18669;53.356;-1.464;2023-05-10T03:44:28;12.77;;;3.03;;
29838;SDS011;18669;53.356;-1.464;2023-05-10T03:47:13;7.13;;;2.40;;
29838;SDS011;18669;53.356;-1.464;2023-05-10T03:49:57;9.32;;;2.70;;
29838;SDS011;18669;53.356;-1.464;2023-05-10T03:52:42;12.85;;;3.42;;
29838;SDS011;18669;53.356;-1.464;2023-05-10T03:55:28;12.43;;;3.33;;
29838;SDS011;18669;53.356;-1.464;2023-05-10T03:58:13;8.00;;;2.60;;
29838;SDS011;18669;53.356;-1.464;2023-05-10T04:00:58;10.07;;;2.78;;
29838;SDS011;18669;53.356;-1.464;2023-05-10T04:03:43;8.18;;;3.28;;
29838;SDS011;18669;53.356;-1.464;2023-05-10T04:06:28;13.85;;;2.95;;
29838;SDS011;18669;53.356;-1.464;2023-05-10T04:09:13;8.55;;;2.78;;
29838;SDS011;18669;53.356;-1.464;2023-05-10T04:11:58;12.35;;;3.25;;
29838;SDS011;18669;53.356;-1.464;2023-05-10T04:14:45;9.65;;;2.85;;
29838;SDS011;18669;53.356;-1.464;2023-05-10T04:17:29;10.57;;;3.03;;
29838;SDS011;18669;53.356;-1.464;2023-05-10T04:20:15;12.13;;;3.80;;
29838;SDS011;18669;53.356;-1.464;2023-05-10T04:23:00;7.55;;;3.10;;
29838;SDS011;18669;53.356;-1.464;2023-05-10T04:25:44;7.13;;;3.00;;
29838;SDS011;18669;53.356;-1.464;2023-05-10T04:28:29;9.88;;;3.15;;
29838;SDS011;18669;53.356;-1.464;2023-05-10T04:31:14;10.50;;;3.28;;
29838;SDS011;18669;53.356;-1.464;2023-05-10T04:33:59;12.30;;;3.38;;
29838;SDS011;18669;53.356;-1.464;2023-05-10T04:36:44;10.68;;;3.80;;
29838;SDS011;18669;53.356;-1.464;2023-05-10T04:39:29;11.98;;;3.92;;
29838;SDS011;18669;53.356;-1.464;2023-05-10T04:42:14;12.23;;;4.22;;
29838;SDS011;18669;53.356;-1.464;2023-05-10T04:44:59;12.93;;;4.63;;
29838;SDS011;18669;53.356;-1.464;2023-05-10T04:47:44;15.70;;;5.53;;
29838;SDS011;18669;53.356;-1.464;2023-05-10T04:50:29;14.18;;;4.53;;
29838;SDS011;18669;53.356;-1.464;2023-05-10T04:53:14;18.05;;;4.90;;
29838;SDS011;18669;53.356;-1.464;2023-05-10T04:55:58;12.48;;;4.10;;
29838;SDS011;18669;53.356;-1.464;2023-05-10T04:58:43;10.65;;;4.38;;
29838;SDS011;18669;53.356;-1.464;2023-05-10T05:01:28;13.55;;;4.78;;
29838;SDS011;18669;53.356;-1.464;2023-05-10T05:04:13;11.98;;;4.45;;
29838;SDS011;18669;53.356;-1.464;2023-05-10T05:06:58;17.52;;;4.57;;
29838;SDS011;18669;53.356;-1.464;2023-05-10T05:09:43;12.27;;;4.25;;
29838;SDS011;18669;53.356;-1.464;2023-05-10T05:12:28;13.20;;;4.68;;
29838;SDS011;18669;53.356;-1.464;2023-05-10T05:15:13;14.55;;;4.60;;
29838;SDS011;18669;53.356;-1.464;2023-05-10T05:17:59;10.43;;;4.07;;
29838;SDS011;18669;53.356;-1.464;2023-05-10T05:20:44;12.30;;;4.70;;
29838;SDS011;18669;53.356;-1.464;2023-05-10T05:23:29;11.43;;;3.95;;
29838;SDS011;18669;53.356;-1.464;2023-05-10T05:26:14;9.60;;;4.75;;
29838;SDS011;18669;53.356;-1.464;2023-05-10T05:28:59;24.42;;;13.43;;
29838;SDS011;18669;53.356;-1.464;2023-05-10T05:31:44;10.00;;;5.55;;
29838;SDS011;18669;53.356;-1.464;2023-05-10T05:34:28;13.48;;;4.32;;
29838;SDS011;18669;53.356;-1.464;2023-05-10T05:37:17;9.75;;;4.40;;
29838;SDS011;18669;53.356;-1.464;2023-05-10T05:40:03;14.52;;;5.07;;
29838;SDS011;18669;53.356;-1.464;2023-05-10T05:42:48;13.05;;;4.57;;
29838;SDS011;18669;53.356;-1.464;2023-05-10T05:45:34;11.18;;;4.18;;
29838;SDS011;18669;53.356;-1.464;2023-05-10T05:48:19;12.48;;;4.20;;
29838;SDS011;18669;53.356;-1.464;2023-05-10T05:51:03;10.50;;;3.92;;
29838;SDS011;18669;53.356;-1.464;2023-05-10T05:53:48;10.38;;;4.20;;
29838;SDS011;18669;53.356;-1.464;2023-05-10T05:56:33;11.82;;;4.25;;
29838;SDS011;18669;53.356;-1.464;2023-05-10T05:59:18;14.15;;;5.53;;
29838;SDS011;18669;53.356;-1.464;2023-05-10T06:02:02;9.10;;;4.22;;
29838;SDS011;18669;53.356;-1.464;2023-05-10T06:04:47;11.82;;;4.43;;
29838;SDS011;18669;53.356;-1.464;2023-05-10T06:07:32;9.90;;;4.07;;
29838;SDS011;18669;53.356;-1.464;2023-05-10T06:10:17;9.48;;;4.78;;
29838;SDS011;18669;53.356;-1.464;2023-05-10T06:13:02;13.25;;;3.95;;
29838;SDS011;18669;53.356;-1.464;2023-05-10T06:15:47;12.57;;;4.28;;
29838;SDS011;18669;53.356;-1.464;2023-05-10T06:18:32;9.35;;;4.10;;
29838;SDS011;18669;53.356;-1.464;2023-05-10T06:21:17;10.35;;;4.88;;
29838;SDS011;18669;53.356;-1.464;2023-05-10T06:24:02;24.73;;;5.15;;
29838;SDS011;18669;53.356;-1.464;2023-05-10T06:26:46;10.50;;;4.70;;
29838;SDS011;18669;53.356;-1.464;2023-05-10T06:29:33;13.02;;;4.93;;
29838;SDS011;18669;53.356;-1.464;2023-05-10T06:32:18;9.05;;;4.22;;
29838;SDS011;18669;53.356;-1.464;2023-05-10T06:35:03;14.13;;;4.43;;
29838;SDS011;18669;53.356;-1.464;2023-05-10T06:37:49;8.32;;;3.38;;
29838;SDS011;18669;53.356;-1.464;2023-05-10T06:40:34;10.30;;;4.35;;
29838;SDS011;18669;53.356;-1.464;2023-05-10T06:43:20;13.15;;;7.07;;
29838;SDS011;18669;53.356;-1.464;2023-05-10T06:46:05;10.65;;;3.38;;
29838;SDS011;18669;53.356;-1.464;2023-05-10T06:48:50;8.23;;;3.00;;
29838;SDS011;18669;53.356;-1.464;2023-05-10T06:51:35;7.78;;;3.00;;
29838;SDS011;18669;53.356;-1.464;2023-05-10T06:54:20;11.77;;;3.75;;
29838;SDS011;18669;53.356;-1.464;2023-05-10T06:57:05;9.00;;;3.30;;
29838;SDS011;18669;53.356;-1.464;2023-05-10T06:59:50;9.45;;;3.50;;
29838;SDS011;18669;53.356;-1.464;2023-05-10T07:02:36;5.05;;;3.05;;
29838;SDS011;18669;53.356;-1.464;2023-05-10T07:05:21;8.32;;;3.25;;
29838;SDS011;18669;53.356;-1.464;2023-05-10T07:08:06;14.75;;;3.28;;
29838;SDS011;18669;53.356;-1.464;2023-05-10T07:10:51;6.20;;;2.33;;
29838;SDS011;18669;53.356;-1.464;2023-05-10T07:13:36;9.05;;;2.70;;
29838;SDS011;18669;53.356;-1.464;2023-05-10T07:16:23;8.02;;;2.80;;
29838;SDS011;18669;53.356;-1.464;2023-05-10T07:19:08;5.88;;;2.65;;
29838;SDS011;18669;53.356;-1.464;2023-05-10T07:21:53;8.85;;;3.97;;
29838;SDS011;18669;53.356;-1.464;2023-05-10T07:24:38;9.88;;;2.78;;
29838;SDS011;18669;53.356;-1.464;2023-05-10T07:27:23;10.25;;;3.00;;
29838;SDS011;18669;53.356;-1.464;2023-05-10T07:30:08;6.95;;;3.03;;
29838;SDS011;18669;53.356;-1.464;2023-05-10T07:32:53;11.32;;;2.38;;
29838;SDS011;18669;53.356;-1.464;2023-05-10T07:35:38;12.20;;;2.63;;
29838;SDS011;18669;53.356;-1.464;2023-05-10T07:38:23;8.23;;;2.13;;
29838;SDS011;18669;53.356;-1.464;2023-05-10T07:41:08;7.63;;;2.30;;
29838;SDS011;18669;53.356;-1.464;2023-05-10T07:43:53;13.70;;;2.75;;
29838;SDS011;18669;53.356;-1.464;2023-05-10T07:46:38;10.65;;;2.35;;
29838;SDS011;18669;53.356;-1.464;2023-05-10T07:49:22;6.05;;;2.25;;
29838;SDS011;18669;53.356;-1.464;2023-05-10T07:52:10;5.80;;;2.75;;
29838;SDS011;18669;53.356;-1.464;2023-05-10T07:54:55;10.98;;;3.15;;
29838;SDS011;18669;53.356;-1.464;2023-05-10T07:57:41;9.50;;;2.33;;
29838;SDS011;18669;53.356;-1.464;2023-05-10T08:00:26;4.45;;;2.05;;
29838;SDS011;18669;53.356;-1.464;2023-05-10T08:03:11;18.63;;;3.00;;
29838;SDS011;18669;53.356;-1.464;2023-05-10T08:05:56;4.03;;;1.85;;
29838;SDS011;18669;53.356;-1.464;2023-05-10T08:08:41;6.40;;;1.95;;
29838;SDS011;18669;53.356;-1.464;2023-05-10T08:11:26;9.60;;;2.53;;
29838;SDS011;18669;53.356;-1.464;2023-05-10T08:14:12;5.85;;;2.00;;
29838;SDS011;18669;53.356;-1.464;2023-05-10T08:16:58;6.03;;;2.17;;
29838;SDS011;18669;53.356;-1.464;2023-05-10T08:19:43;4.47;;;1.45;;
29838;SDS011;18669;53.356;-1.464;2023-05-10T08:22:29;7.45;;;2.42;;
29838;SDS011;18669;53.356;-1.464;2023-05-10T08:25:14;9.93;;;2.70;;
29838;SDS011;18669;53.356;-1.464;2023-05-10T08:28:01;8.43;;;2.33;;
29838;SDS011;18669;53.356;-1.464;2023-05-10T08:30:47;6.45;;;2.33;;
29838;SDS011;18669;53.356;-1.464;2023-05-10T08:33:35;6.15;;;2.30;;
29838;SDS011;18669;53.356;-1.464;2023-05-10T08:36:21;6.32;;;2.95;;
29838;SDS011;18669;53.356;-1.464;2023-05-10T08:39:08;11.15;;;3.15;;
29838;SDS011;18669;53.356;-1.464;2023-05-10T08:41:53;10.80;;;2.88;;
29838;SDS011;18669;53.356;-1.464;2023-05-10T08:44:42;5.60;;;2.25;;
29838;SDS011;18669;53.356;-1.464;2023-05-10T08:47:27;6.15;;;2.10;;
29838;SDS011;18669;53.356;-1.464;2023-05-10T08:50:14;6.28;;;1.75;;
29838;SDS011;18669;53.356;-1.464;2023-05-10T08:53:00;6.22;;;1.50;;
29838;SDS011;18669;53.356;-1.464;2023-05-10T08:55:48;4.45;;;1.70;;
29838;SDS011;18669;53.356;-1.464;2023-05-10T08:58:33;5.07;;;1.30;;
29838;SDS011;18669;53.356;-1.464;2023-05-10T09:01:18;7.55;;;1.50;;
29838;SDS011;18669;53.356;-1.464;2023-05-10T09:04:05;5.70;;;1.85;;
29838;SDS011;18669;53.356;-1.464;2023-05-10T09:06:50;6.70;;;1.83;;
29838;SDS011;18669;53.356;-1.464;2023-05-10T09:09:35;3.75;;;1.40;;
29838;SDS011;18669;53.356;-1.464;2023-05-10T09:12:21;3.03;;;1.13;;
29838;SDS011;18669;53.356;-1.464;2023-05-10T09:15:07;6.25;;;1.55;;
29838;SDS011;18669;53.356;-1.464;2023-05-10T09:17:54;5.95;;;1.60;;
29838;SDS011;18669;53.356;-1.464;2023-05-10T09:20:39;5.35;;;1.42;;
29838;SDS011;18669;53.356;-1.464;2023-05-10T09:23:24;7.57;;;1.33;;
29838;SDS011;18669;53.356;-1.464;2023-05-10T09:26:15;2.55;;;1.35;;
29838;SDS011;18669;53.356;-1.464;2023-05-10T09:29:00;3.92;;;1.10;;
29838;SDS011;18669;53.356;-1.464;2023-05-10T09:31:48;2.17;;;1.00;;
29838;SDS011;18669;53.356;-1.464;2023-05-10T09:34:39;4.30;;;1.30;;
29838;SDS011;18669;53.356;-1.464;2023-05-10T09:37:30;7.22;;;3.60;;
29838;SDS011;18669;53.356;-1.464;2023-05-10T09:40:19;3.67;;;1.80;;
29838;SDS011;18669;53.356;-1.464;2023-05-10T09:43:08;3.70;;;1.80;;
29838;SDS011;18669;53.356;-1.464;2023-05-10T09:45:55;3.83;;;1.45;;
29838;SDS011;18669;53.356;-1.464;2023-05-10T09:48:41;5.15;;;1.60;;
29838;SDS011;18669;53.356;-1.464;2023-05-10T09:51:28;4.93;;;1.67;;
29838;SDS011;18669;53.356;-1.464;2023-05-10T09:54:14;7.70;;;2.30;;
29838;SDS011;18669;53.356;-1.464;2023-05-10T09:57:00;8.30;;;2.58;;
29838;SDS011;18669;53.356;-1.464;2023-05-10T09:59:45;5.13;;;1.50;;
29838;SDS011;18669;53.356;-1.464;2023-05-10T10:02:32;3.53;;;1.40;;
29838;SDS011;18669;53.356;-1.464;2023-05-10T10:05:17;6.63;;;1.30;;
29838;SDS011;18669;53.356;-1.464;2023-05-10T10:08:03;5.20;;;1.27;;
29838;SDS011;18669;53.356;-1.464;2023-05-10T10:10:49;3.30;;;1.08;;
29838;SDS011;18669;53.356;-1.464;2023-05-10T10:13:34;4.30;;;1.00;;
29838;SDS011;18669;53.356;-1.464;2023-05-10T10:16:19;9.90;;;1.40;;
29838;SDS011;18669;53.356;-1.464;2023-05-10T10:19:05;3.55;;;1.10;;
29838;SDS011;18669;53.356;-1.464;2023-05-10T10:21:50;5.28;;;1.10;;
29838;SDS011;18669;53.356;-1.464;2023-05-10T10:24:35;4.82;;;1.17;;
29838;SDS011;18669;53.356;-1.464;2023-05-10T10:30:12;2.08;;;0.70;;
29838;SDS011;18669;53.356;-1.464;2023-05-10T10:33:28;6.68;;;0.77;;
29838;SDS011;18669;53.356;-1.464;2023-05-10T10:36:15;2.13;;;0.90;;
29838;SDS011;18669;53.356;-1.464;2023-05-10T10:39:00;5.50;;;1.60;;
29838;SDS011;18669;53.356;-1.464;2023-05-10T10:41:53;2.90;;;1.10;;
29838;SDS011;18669;53.356;-1.464;2023-05-10T10:44:40;1.90;;;1.15;;
29838;SDS011;18669;53.356;-1.464;2023-05-10T10:47:27;2.60;;;1.08;;
29838;SDS011;18669;53.356;-1.464;2023-05-10T10:50:17;2.70;;;1.10;;
29838;SDS011;18669;53.356;-1.464;2023-05-10T10:53:10;3.65;;;1.30;;
29838;SDS011;18669;53.356;-1.464;2023-05-10T10:56:02;2.78;;;1.30;;
29838;SDS011;18669;53.356;-1.464;2023-05-10T10:58:51;2.65;;;1.40;;
29838;SDS011;18669;53.356;-1.464;2023-05-10T11:01:37;4.15;;;1.58;;
29838;SDS011;18669;53.356;-1.464;2023-05-10T11:04:28;4.68;;;1.40;;
29838;SDS011;18669;53.356;-1.464;2023-05-10T11:07:25;5.00;;;1.73;;
29838;SDS011;18669;53.356;-1.464;2023-05-10T11:10:10;4.45;;;1.45;;
29838;SDS011;18669;53.356;-1.464;2023-05-10T11:12:59;4.65;;;1.60;;
29838;SDS011;18669;53.356;-1.464;2023-05-10T11:15:48;3.95;;;1.40;;
29838;SDS011;18669;53.356;-1.464;2023-05-10T11:18:35;5.33;;;1.60;;
29838;SDS011;18669;53.356;-1.464;2023-05-10T11:21:22;2.58;;;1.40;;
29838;SDS011;18669;53.356;-1.464;2023-05-10T11:24:12;5.18;;;1.50;;
29838;SDS011;18669;53.356;-1.464;2023-05-10T11:26:58;5.00;;;1.40;;
29838;SDS011;18669;53.356;-1.464;2023-05-10T11:29:43;4.18;;;1.25;;
29838;SDS011;18669;53.356;-1.464;2023-05-10T11:32:28;3.42;;;1.40;;
29838;SDS011;18669;53.356;-1.464;2023-05-10T11:35:14;8.25;;;1.52;;
29838;SDS011;18669;53.356;-1.464;2023-05-10T11:37:59;3.47;;;1.13;;
29838;SDS011;18669;53.356;-1.464;2023-05-10T11:40:43;3.13;;;1.13;;
29838;SDS011;18669;53.356;-1.464;2023-05-10T11:43:28;2.20;;;0.82;;
29838;SDS011;18669;53.356;-1.464;2023-05-10T11:46:15;2.60;;;0.70;;
29838;SDS011;18669;53.356;-1.464;2023-05-10T11:49:01;5.07;;;0.90;;
29838;SDS011;18669;53.356;-1.464;2023-05-10T11:51:48;1.38;;;0.50;;
29838;SDS011;18669;53.356;-1.464;2023-05-10T11:54:33;1.98;;;0.88;;
29838;SDS011;18669;53.356;-1.464;2023-05-10T11:57:19;2.00;;;0.80;;
29838;SDS011;18669;53.356;-1.464;2023-05-10T12:00:05;1.70;;;0.95;;
29838;SDS011;18669;53.356;-1.464;2023-05-10T12:02:50;7.82;;;4.30;;
29838;SDS011;18669;53.356;-1.464;2023-05-10T12:05:35;3.17;;;1.02;;
29838;SDS011;18669;53.356;-1.464;2023-05-10T12:08:24;2.85;;;1.08;;
29838;SDS011;18669;53.356;-1.464;2023-05-10T12:11:11;7.22;;;1.50;;
29838;SDS011;18669;53.356;-1.464;2023-05-10T12:14:00;2.38;;;1.00;;
29838;SDS011;18669;53.356;-1.464;2023-05-10T12:16:49;13.88;;;2.10;;
29838;SDS011;18669;53.356;-1.464;2023-05-10T12:19:38;15.93;;;2.65;;
29838;SDS011;18669;53.356;-1.464;2023-05-10T12:22:24;10.32;;;2.40;;
29838;SDS011;18669;53.356;-1.464;2023-05-10T12:25:09;4.85;;;1.85;;
29838;SDS011;18669;53.356;-1.464;2023-05-10T12:27:55;9.35;;;1.60;;
29838;SDS011;18669;53.356;-1.464;2023-05-10T12:30:42;6.03;;;1.40;;
29838;SDS011;18669;53.356;-1.464;2023-05-10T12:33:35;0.95;;;0.80;;
29838;SDS011;18669;53.356;-1.464;2023-05-10T12:36:23;2.67;;;0.80;;
29838;SDS011;18669;53.356;-1.464;2023-05-10T12:39:09;1.85;;;1.05;;
29838;SDS011;18669;53.356;-1.464;2023-05-10T12:41:54;0.90;;;0.90;;
29838;SDS011;18669;53.356;-1.464;2023-05-10T12:44:39;1.00;;;0.90;;
29838;SDS011;18669;53.356;-1.464;2023-05-10T12:47:24;0.82;;;0.80;;
29838;SDS011;18669;53.356;-1.464;2023-05-10T12:50:09;2.15;;;0.90;;
29838;SDS011;18669;53.356;-1.464;2023-05-10T12:52:54;3.28;;;1.23;;
29838;SDS011;18669;53.356;-1.464;2023-05-10T12:55:39;1.30;;;0.80;;
29838;SDS011;18669;53.356;-1.464;2023-05-10T12:58:24;0.68;;;0.57;;
29838;SDS011;18669;53.356;-1.464;2023-05-10T13:01:09;0.55;;;0.55;;
29838;SDS011;18669;53.356;-1.464;2023-05-10T13:03:54;3.90;;;0.77;;
29838;SDS011;18669;53.356;-1.464;2023-05-10T13:06:39;1.30;;;0.73;;
29838;SDS011;18669;53.356;-1.464;2023-05-10T13:09:24;0.55;;;0.50;;
29838;SDS011;18669;53.356;-1.464;2023-05-10T13:14:55;0.80;;;0.80;;
29838;SDS011;18669;53.356;-1.464;2023-05-10T13:17:39;3.20;;;0.60;;
29838;SDS011;18669;53.356;-1.464;2023-05-10T13:20:25;1.15;;;0.82;;
29838;SDS011;18669;53.356;-1.464;2023-05-10T13:23:10;1.65;;;0.60;;
29838;SDS011;18669;53.356;-1.464;2023-05-10T13:25:55;2.10;;;1.10;;
29838;SDS011;18669;53.356;-1.464;2023-05-10T13:28:40;1.77;;;1.10;;
29838;SDS011;18669;53.356;-1.464;2023-05-10T13:31:25;1.58;;;0.95;;
29838;SDS011;18669;53.356;-1.464;2023-05-10T13:34:10;2.75;;;1.15;;
29838;SDS011;18669;53.356;-1.464;2023-05-10T13:36:55;1.85;;;1.00;;
29838;SDS011;18669;53.356;-1.464;2023-05-10T13:39:40;6.07;;;1.98;;
29838;SDS011;18669;53.356;-1.464;2023-05-10T13:42:25;3.45;;;1.30;;
29838;SDS011;18669;53.356;-1.464;2023-05-10T13:45:10;5.00;;;1.20;;
29838;SDS011;18669;53.356;-1.464;2023-05-10T13:47:56;2.03;;;1.17;;
29838;SDS011;18669;53.356;-1.464;2023-05-10T13:50:41;1.65;;;1.20;;
29838;SDS011;18669;53.356;-1.464;2023-05-10T13:53:27;3.33;;;1.25;;
29838;SDS011;18669;53.356;-1.464;2023-05-10T13:56:12;4.93;;;1.02;;
29838;SDS011;18669;53.356;-1.464;2023-05-10T13:58:57;2.67;;;1.15;;
29838;SDS011;18669;53.356;-1.464;2023-05-10T14:01:42;3.40;;;0.88;;
29838;SDS011;18669;53.356;-1.464;2023-05-10T14:04:28;3.97;;;0.80;;
29838;SDS011;18669;53.356;-1.464;2023-05-10T14:07:13;2.88;;;0.80;;
29838;SDS011;18669;53.356;-1.464;2023-05-10T14:09:57;0.80;;;0.70;;
29838;SDS011;18669;53.356;-1.464;2023-05-10T14:12:42;0.55;;;0.55;;
29838;SDS011;18669;53.356;-1.464;2023-05-10T14:15:27;1.92;;;1.20;;
29838;SDS011;18669;53.356;-1.464;2023-05-10T14:18:12;1.50;;;0.85;;
29838;SDS011;18669;53.356;-1.464;2023-05-10T14:20:58;7.18;;;0.70;;
29838;SDS011;18669;53.356;-1.464;2023-05-10T14:23:43;2.20;;;0.75;;
29838;SDS011;18669;53.356;-1.464;2023-05-10T14:26:28;1.20;;;0.90;;
29838;SDS011;18669;53.356;-1.464;2023-05-10T14:29:13;0.60;;;0.60;;
29838;SDS011;18669;53.356;-1.464;2023-05-10T14:31:58;0.57;;;0.57;;
29838;SDS011;18669;53.356;-1.464;2023-05-10T14:34:43;0.60;;;0.60;;
29838;SDS011;18669;53.356;-1.464;2023-05-10T14:37:27;8.77;;;0.70;;
29838;SDS011;18669;53.356;-1.464;2023-05-10T14:40:16;1.73;;;0.65;;
29838;SDS011;18669;53.356;-1.464;2023-05-10T14:43:01;2.00;;;0.60;;
29838;SDS011;18669;53.356;-1.464;2023-05-10T14:45:46;2.35;;;0.65;;
29838;SDS011;18669;53.356;-1.464;2023-05-10T14:48:32;1.75;;;0.85;;
29838;SDS011;18669;53.356;-1.464;2023-05-10T14:51:17;2.95;;;0.65;;
29838;SDS011;18669;53.356;-1.464;2023-05-10T14:54:05;1.02;;;0.63;;
29838;SDS011;18669;53.356;-1.464;2023-05-10T14:56:50;1.52;;;0.90;;
29838;SDS011;18669;53.356;-1.464;2023-05-10T14:59:35;0.55;;;0.55;;
29838;SDS011;18669;53.356;-1.464;2023-05-10T15:02:20;0.82;;;0.65;;
29838;SDS011;18669;53.356;-1.464;2023-05-10T15:05:05;1.33;;;0.77;;
29838;SDS011;18669;53.356;-1.464;2023-05-10T15:07:52;1.25;;;0.60;;
29838;SDS011;18669;53.356;-1.464;2023-05-10T15:10:37;2.67;;;0.77;;
29838;SDS011;18669;53.356;-1.464;2023-05-10T15:13:22;1.80;;;0.77;;
29838;SDS011;18669;53.356;-1.464;2023-05-10T15:16:07;2.20;;;0.98;;
29838;SDS011;18669;53.356;-1.464;2023-05-10T15:18:52;1.23;;;0.90;;
29838;SDS011;18669;53.356;-1.464;2023-05-10T15:21:37;1.60;;;0.80;;
29838;SDS011;18669;53.356;-1.464;2023-05-10T15:24:24;4.32;;;1.33;;
29838;SDS011;18669;53.356;-1.464;2023-05-10T15:27:10;8.13;;;1.23;;
29838;SDS011;18669;53.356;-1.464;2023-05-10T15:29:55;3.00;;;0.82;;
29838;SDS011;18669;53.356;-1.464;2023-05-10T15:32:40;0.75;;;0.70;;
29838;SDS011;18669;53.356;-1.464;2023-05-10T15:35:25;1.33;;;1.00;;
29838;SDS011;18669;53.356;-1.464;2023-05-10T15:38:10;3.88;;;1.88;;
29838;SDS011;18669;53.356;-1.464;2023-05-10T15:40:56;1.30;;;1.10;;
29838;SDS011;18669;53.356;-1.464;2023-05-10T15:43:42;7.03;;;2.97;;
29838;SDS011;18669;53.356;-1.464;2023-05-10T15:46:27;1.13;;;1.02;;
29838;SDS011;18669;53.356;-1.464;2023-05-10T15:49:13;1.55;;;0.73;;
29838;SDS011;18669;53.356;-1.464;2023-05-10T15:51:58;0.88;;;0.82;;
29838;SDS011;18669;53.356;-1.464;2023-05-10T15:54:43;1.23;;;0.90;;
29838;SDS011;18669;53.356;-1.464;2023-05-10T15:57:28;1.05;;;1.00;;
29838;SDS011;18669;53.356;-1.464;2023-05-10T16:00:13;1.33;;;0.73;;
29838;SDS011;18669;53.356;-1.464;2023-05-10T16:02:58;1.95;;;0.88;;
29838;SDS011;18669;53.356;-1.464;2023-05-10T16:05:44;1.17;;;0.90;;
29838;SDS011;18669;53.356;-1.464;2023-05-10T16:08:29;0.90;;;0.85;;
29838;SDS011;18669;53.356;-1.464;2023-05-10T16:11:14;1.42;;;0.93;;
29838;SDS011;18669;53.356;-1.464;2023-05-10T16:13:58;1.15;;;0.90;;
29838;SDS011;18669;53.356;-1.464;2023-05-10T16:16:44;0.80;;;0.80;;
29838;SDS011;18669;53.356;-1.464;2023-05-10T16:19:29;1.60;;;1.02;;
29838;SDS011;18669;53.356;-1.464;2023-05-10T16:22:14;2.55;;;1.30;;
29838;SDS011;18669;53.356;-1.464;2023-05-10T16:24:59;2.05;;;1.30;;
29838;SDS011;18669;53.356;-1.464;2023-05-10T16:27:44;2.05;;;1.50;;
29838;SDS011;18669;53.356;-1.464;2023-05-10T16:30:29;2.70;;;1.45;;
29838;SDS011;18669;53.356;-1.464;2023-05-10T16:33:15;2.00;;;1.40;;
29838;SDS011;18669;53.356;-1.464;2023-05-10T16:36:00;1.42;;;1.10;;
29838;SDS011;18669;53.356;-1.464;2023-05-10T16:38:45;2.10;;;0.80;;
29838;SDS011;18669;53.356;-1.464;2023-05-10T16:41:33;1.92;;;0.75;;
29838;SDS011;18669;53.356;-1.464;2023-05-10T16:44:18;1.45;;;1.17;;
29838;SDS011;18669;53.356;-1.464;2023-05-10T16:47:03;0.77;;;0.60;;
29838;SDS011;18669;53.356;-1.464;2023-05-10T16:49:48;2.03;;;0.60;;
29838;SDS011;18669;53.356;-1.464;2023-05-10T16:52:33;6.93;;;0.50;;